NOTICE: Beginning in January 2020, USGS WaterWatch will be operated in a maintenance-only mode. We apologize for any inconvenience that this may cause. Please contact USGS WaterWatch if you have any questions
Choose a state:
Most recent flow and stage for Oklahoma
(Stations highlighted in red are currently above flood stage)
USGS
station
ID
USGS station name NWS
flood
stage
(ft)
Most recent
stage
(ft)
Most recent
flow
(cfs)
Historical
peaks
(cfs)
Most recent
local
date/time
NWS
station
ID
07148400 Salt Fork Arkansas River nr Alva, OK 14.5 2.99 123 27,000 2020-02-19 04:30:00 AVAO2
07149520 Salt Fork Arkansas River at SH 11 nr Cherokee, OK   8.17 345 7,320 2020-02-19 04:00:00  
07151000 Salt Fork Arkansas River at Tonkawa, OK 17 4.56 546 97,300 2020-02-19 04:30:00 TONO2
07152000 Chikaskia River near Blackwell, OK 29 3.24 312 100,000 2020-02-19 04:30:00 BLKO2
07152500 Arkansas River at Ralston, OK 16 7.00 8,910 211,000 2020-02-19 04:15:00 RLSO2
07153000 Black Bear Creek at Pawnee, OK 17 2.30 74.2 30,200 2020-02-19 04:30:00 PAWO2
07154500 Cimarron River near Kenton, OK 20 5.67 0.04 43,400 2020-02-19 04:15:00 KENO2
07156900 Cimarron River near Forgan, OK 5 2.32 18.3 69,000 2020-02-19 04:00:00 FRGO2
07157950 Cimarron River near Buffalo, OK 9 3.66 63.5 26,400 2020-02-19 04:30:00 BFFO2
07158000 Cimarron River near Waynoka, OK 8 5.96 196 94,500 2020-02-19 04:30:00 WANO2
07159100 Cimarron River near Dover, OK 17 9.95 266 123,000 2020-02-19 04:30:00 DOVO2
07159550 Lake Hefner at Oklahoma City, OK   1199.28

 

  2020-02-19 04:45:00  
07159750 Cottonwood Creek near Seward, OK 30 4.87 129 43,500 2020-02-19 04:30:00 SWDO2
07160000 Cimarron River near Guthrie, OK 18 6.43 575 158,000 2020-02-19 04:30:00 GTRO2
07160350 Skeleton Creek at Enid, OK   2.55 4.61 9,860 2020-02-19 04:00:00 ESCO2
07160500 Skeleton Creek near Lovell, OK   10.53 53.3 75,200 2020-02-19 04:30:00  
07161450 Cimarron River near Ripley, OK 17 7.89 763 141,000 2020-02-19 04:00:00 RIPO2
07164500 Arkansas River at Tulsa, OK 18 3.09 5,450 307,000 2020-02-19 04:30:00 TLSO2
07164600 Joe Creek at 61st St at Tulsa, OK 8 0.57 5.30 12,700 2020-02-19 04:50:00 TJOO2
07165562 Haikey Creek at 101st St South at Tulsa, OK 16 4.72 5.77 7,100 2020-02-19 04:40:00 THCO2
07165565 Little Haikey Creek at 101st St South at Tulsa, OK   5.42 2.21 4,300 2020-02-19 04:50:00  
07165570 Arkansas River near Haskell, OK 19 5.22 5,510 259,000 2020-02-19 04:00:00 HSKO2
07171000 Verdigris River near Lenapah, OK 30 5.77 1,060 192,000 2020-02-19 04:00:00 LEPO2
07174400 Caney River above Coon Creek at Bartlesville, OK 13 4.04 864 94,500 2020-02-19 04:00:00 BVLO2
07174470 Caney River at Tuxedo Blvd at Bartlesville, OK   7.79

 

  2020-02-19 04:45:00  
07174618 Sand Creek Below Little Rock Creek near Okesa, OK   7.41

 

  2020-02-19 04:00:00 OKEO2
07175500 Caney River near Ramona, OK 26 5.33 1,200 85,600 2020-02-19 03:45:00 RAMO2
07176000 Verdigris River near Claremore, OK 36 6.91 2,860 182,000 2020-02-19 04:30:00 CLRO2
07176321 Bird Creek at SH 99 at Pawhuska, OK   5.87 59.0 20,000 2020-02-19 04:45:00  
07176500 Bird Creek at Avant, OK 17 3.85 111 32,400 2020-02-19 04:30:00 AVTO2
07176950 Hominy Creek near Hominy, OK   6.63 25.7 20,500 2020-02-19 04:00:00  
07177500 Bird Creek near Sperry, OK 21 2.38 376 90,000 2020-02-19 04:00:00 SPEO2
07177650 Flat Rock Creek at Cincinnati Ave at Tulsa, OK   4.03 4.18 8,290 2020-02-19 04:45:00  
07177800 Coal Creek at Tulsa, OK   5.02 5.40 6,010 2020-02-19 04:45:00  
07178000 Bird Creek near Owasso, OK 18 5.33 415 29,200 2020-02-19 04:00:00 OWSO2
07178200 Bird Ck at State Highway 266 near Catoosa, OK   5.25 549 27,400 2020-02-19 04:30:00  
07178452 Verdigris River near Catoosa, OK   33.51

 

  2020-02-19 04:45:00  
07178645 Verdigris River near Wagoner, OK   12.92

 

  2020-02-19 04:00:00  
07185000 Neosho River near Commerce, OK 15 3.41 1,290 267,000 2020-02-19 04:30:00 COMO2
07185030 Elm Creek near Commerce, OK   6.70 2.89 1,720 2020-02-19 04:00:00  
07185080 Neosho River at Miami, OK   742.53

 

  2020-02-19 04:45:00  
07185090 Tar Creek near Commerce, OK   8.58 18.6 5,420 2020-02-19 04:15:00  
07185095 Tar Creek at 22nd Street Bridge at Miami, OK   4.22 23.8 12,400 2020-02-19 04:15:00  
07188000 Spring River near Quapaw, OK 20 8.56 2,940 230,000 2020-02-19 04:00:00 QUAO2
07188005 Beaver Creek near Quapaw, OK   2.35 4.84 1,210 2020-02-19 04:10:00  
07189000 Elk River near Tiff City, Mo 15 5.48 1,750 137,000 2020-02-19 04:30:00 TIFM7
07189540 Cave Springs Branch near South West City, MO   4.74 9.37 4,330 2020-02-19 04:00:00  
07189542 Honey Creek near South West City, MO   4.83 120 19,300 2020-02-18 20:30:00  
07190000 Lake O' the Cherokees at Langley, OK   742.20

 

  2020-02-19 04:00:00 PENO2
07190100 Neosho River (service road) near Langley, OK   14.55

 

  2020-02-19 04:00:00  
07190500 Neosho River near Langley, OK   14.47 2,470 300,000 2020-02-19 04:15:00  
07191000 Big Cabin Creek near Big Cabin, OK   13.74 205 63,000 2020-02-19 04:30:00  
07191160 Spavinaw Creek near Maysville, AR   7.42 172 14,800 2020-02-19 04:30:00  
07191179 Spavinaw Creek near Cherokee City, AR   6.61 208 15,100 2020-02-19 04:15:00  
07191220 Spavinaw Creek near Sycamore, OK   5.11 252 39,800 2020-02-19 04:30:00  
071912213 Spavinaw Creek near Colcord, OK   8.89 351 27,700 2020-02-19 04:15:00  
07191222 Beaty Creek near Jay, OK   5.93 95.0 26,700 2020-02-19 04:15:00  
07191285 Lake Eucha near Eucha, OK   774.67

 

  2020-02-19 04:45:00 NNEO2
07191288 Spavinaw Creek near Eucha, OK   10.25 1,070 79,600 2020-02-19 04:45:00  
07191300 Spavinaw Lake at Spavinaw, OK   680.70

 

  2020-02-19 04:30:00 SPAO2
07191400 Lake Hudson near Locust Grove, OK   621.50

 

  2020-02-19 04:00:00 MFDO2
07191500 Neosho River near Chouteau, OK   7.06 732 400,000 2020-02-19 04:00:00  
07192100 Spring Creek near Locust Grove, OK   12.89 223 7,090 2020-02-19 04:45:00  
07194500 Arkansas River near Muskogee, OK 28 20.12 31,900 700,000 2020-02-19 04:00:00 MKGO2
07194555 Arkansas River at Gore, OK   61.81

 

  2020-02-19 04:45:00  
07195500 Illinois River near Watts, OK 13 4.55 1,180 128,000 2020-02-19 04:30:00 WTTO2
07195855 Flint Creek near West Siloam Springs, OK   4.73 79.3 15,900 2020-02-19 04:30:00  
07195865 Sager Creek near West Siloam Springs, OK   5.75 27.4 5,020 2020-02-19 04:15:00  
07196000 Flint Creek near Kansas, OK 11 6.69 300 44,400 2020-02-19 04:30:00 KNSO2
07196090 Illinois River at Chewey, OK 12 5.38 1,450 124,000 2020-02-19 04:15:00 CWYO2
07196320 Illinois River near Moodys, OK   5.91

 

  2020-02-19 04:00:00  
07196500 Illinois River near Tahlequah, OK 11 7.23 1,910 150,000 2020-02-19 04:30:00 TALO2
07197000 Baron Fork at Eldon, OK 18 6.98 554 63,400 2020-02-19 04:30:00 ELDO2
07197360 Caney Creek near Barber, OK   6.32 Bkw 13,100 2020-02-19 04:00:00  
07198000 Illinois River near Gore, OK 23 11.85 4,440 180,000 2020-02-19 04:30:00 GORO2
07228500 Canadian River at Bridgeport, OK 14 10.49 322 150,000 2020-02-19 04:30:00 BRIO2
07228940 Canadian River near Mustang, OK 12 2.13 402 73,500 2020-02-19 04:00:00 TUCO2
07229050 Canadian River at Norman, OK 94 87.50 476 49,700 2020-02-19 04:00:00 NRCO2
07229200 Canadian River at Purcell, OK 12 4.43 342 102,000 2020-02-19 04:30:00 PRCO2
07229300 Walnut Creek at Purcell, OK   4.33 63.8 67,700 2020-02-19 04:30:00  
07229445 Stanley Draper Lake near Oklahoma City, OK   1190.37

 

  2020-02-19 04:30:00  
07229900 Lake Thunderbird near Norman, OK   1039.10

 

  2020-02-19 04:00:00  
07230000 Little River blw Lk Thunderbird nr Norman, OK   3.03 0.55 34,600 2020-02-19 04:00:00  
07230500 Little River near Tecumseh, OK 11 4.68 41.2 60,000 2020-02-19 04:30:00 TCMO2
07231000 Little River near Sasakwa, OK 26 4.55 300 44,600 2020-02-19 04:30:00 SASO2
07231500 Canadian River at Calvin, OK 20 7.67 2,080 174,000 2020-02-19 04:00:00 CLVO2
07232470 Beaver River near Goodwell, OK 24 6.11

 

114 2020-02-19 04:30:00 GBRO2
07234000 Beaver River at Beaver, OK 9 2.21 0.26 70,000 2020-02-19 04:00:00 BVRO2
07235600 Wolf Creek nr Gage, OK   5.82 12.2 2,090 2020-02-19 04:30:00  
07237500 North Canadian River at Woodward, OK 9 3.92 106 42,000 2020-02-19 04:00:00 WDGO2
07238000 North Canadian River near Seiling, OK 11 5.64 179 33,000 2020-02-19 04:00:00 SEIO2
07238500 Canton Lake near Canton, OK   1615.88

 

  2020-02-19 04:00:00  
07239000 North Canadian River at Canton, OK   13.14

 

24,800 2020-02-19 04:00:00  
07239300 North Canadian River blw Weavers Ck nr Watonga, OK 15 8.91 215 7,220 2020-02-19 04:30:00 WATO2
07239450 North Canadian River near Calumet, OK   5.47 260 23,900 2020-02-19 04:00:00  
07239500 North Canadian River near El Reno, OK 17 4.51 231 23,800 2020-02-19 04:00:00 ELNO2
07239700 North Canadian River near Yukon, OK 14 2.50 310 25,100 2020-02-19 04:30:00 YUKO2
07240000 Lake Hefner Canal near Oklahoma City, OK   5.17 0.58   2020-02-19 04:30:00  
07240200 North Canadian R at Hwy 66 at Oklahoma City, OK   1241.95

 

  2020-02-19 04:30:00  
07240500 Lake Overholser near Oklahoma City, OK   1241.63

 

  2020-02-19 04:00:00  
07241000 North Canadian River blw Lk Overholser nr OKC, OK 24 6.46 313 135,000 2020-02-19 04:00:00 OLBO2
07241520 North Canadian River at Britton Rd at OKC, OK 17 7.14 350 38,100 2020-02-19 04:00:00 OKBO2
07241550 North Canadian River near Harrah, OK 14 5.20 400 27,200 2020-02-19 04:00:00 HRHO2
07241588 Wes Watkins Reservoir near McLoud, OK   1074.24

 

  2020-02-19 04:00:00  
07241600 Shawnee Lake No 1 at Shawnee, OK   1075.16

 

  2020-02-19 04:00:00  
07241780 Squirrel Creek at Shawnee, OK   2.58 8.52 2,160 2020-02-19 04:00:00  
07241800 North Canadian River at Shawnee, OK   10.70 512 23,500 2020-02-19 04:30:00 SNCO2
07242000 North Canadian River near Wetumka, OK 24 7.19 950 66,000 2020-02-19 04:00:00 WETO2
07242380 Deep Fork at Warwick, OK   4.80 141 34,600 2020-02-19 04:00:00  
07243500 Deep Fork near Beggs, OK 18 4.07 1,100 66,800 2020-02-19 04:15:00 BGSO2
07245000 Canadian River near Whitefield, OK   8.31 19,200 281,000 2020-02-19 04:30:00 WHTO2
07246500 Arkansas River near Sallisaw, OK   15.12

 

544,000 2019-10-01 00:45:00  
07247015 Poteau River at Loving, OK   12.36 907 37,000 2020-02-19 04:30:00 LVNO2
07247250 Black Fork below Big Creek nr Page, OK   6.51 465 36,000 2020-02-19 04:00:00  
07247500 Fourche Maline near Red Oak, OK   3.63 138 41,500 2020-02-19 04:30:00  
07249413 Poteau River near Panama, OK 29 22.71 6,290 82,100 2020-02-19 04:30:00 PANO2
07249455 Arkansas River at Ft. Smith, Ar.   13.00 62,700 414,000 2020-02-19 04:15:00  
07249800 Lee Creek at Short, OK   3.75 616 63,500 2020-02-19 04:15:00  
07249920 Little Lee Creek near Nicut, OK   1.16 62.1 27,800 2020-02-19 03:00:00  
07249985 Lee Creek near Short, OK   3.43 852 111,000 2020-02-19 04:30:00  
07250500 Arkansas River near Van Buren, AR 22 19.70

 

850,000 2020-02-19 04:00:00 VBUA4
07300500 Salt Fork Red River at Mangum, OK   2.94 45.6 72,000 2020-02-19 04:45:00 MGMO2
07301110 Salt Fork Red River near Elmer, OK   6.95 62.8 44,900 2020-02-19 04:00:00 ESFO2
07301420 Sweetwater Creek near Sweetwater, OK   7.34 21.0 1,940 2020-02-19 04:00:00  
07301481 North Fork Red River near Sayre, OK   2.92

 

  2020-02-19 04:00:00 SAYO2
07301500 North Fork Red River near Carter, OK 16 5.69 99.1 53,400 2020-02-19 04:00:00 CARO2
07302500 Lake Altus at Lugert, OK   1548.72

 

  2020-02-19 04:30:00 ALTO2
07302520 Lugert Drainage Ditch at Lugert, OK   0.37

 

  2020-02-19 04:00:00  
07303000 North Fork Red River blw Altus Dam nr Lugert, OK   5.35 0.38 16,100 2020-02-19 04:45:00  
07303400 Elm Fork of North Fork Red River nr Carl, OK   6.41 *** 62,300 2020-02-19 04:00:00 CRLO2
07305000 North Fork Red River near Headrick, OK 14 6.42 66.3 60,000 2020-02-19 04:00:00 HEAO2
07307010 Otter Creek near Snyder, OK   5.82

 

5,240 2020-01-19 00:00:00  
07307028 North Fork Red River near Tipton, OK   5.90 88.4 57,200 2020-02-19 04:30:00 TIPO2
07308990 Lake Ellsworth near Elgin, OK   1230.28

 

  2020-02-19 04:45:00 ELWO2
07309500 Lake Lawtonka near Lawton, OK   1341.41

 

  2020-02-19 04:30:00 LTLO2
07309990 East Cache Creek nr Lawton, OK   5.35 22.4 23,800 2020-02-19 04:00:00  
07311000 East Cache Creek near Walters, OK 21 5.18 37.2 50,900 2020-02-19 04:30:00 WLTO2
07311240 West Cache Creek near Cookietown, OK   5.70 0.19 15,400 2020-02-19 04:00:00  
07311415 Lake Frederick nr Frederick, OK   1197.64

 

  2020-02-19 04:30:00  
07311500 Deep Red Creek near Randlett, OK 20 2.72 0.00 72,300 2020-02-19 04:30:00 RNDO2
07312920 Beaver Creek nr Hulen, OK   8.09

 

  2020-02-19 04:45:00  
07313000 Little Beaver Creek near Duncan, OK   7.80

 

47,500 2020-02-19 04:45:00  
07313585 Cow Creek nr Addington, OK   3.11

 

  2020-02-19 04:45:00  
07315500 Red Rv nr Terral, OK 22 6.92 647 236,000 2020-02-19 04:00:00 TRLO2
07315650 Red River nr Courtney, OK   11.86

 

  2020-02-19 04:30:00  
07315700 Mud Creek near Courtney, OK   9.04 51.3 64,300 2020-02-19 04:30:00 CORO2
07316000 Red River near Gainesville, TX 25 9.38 1,560 265,000 2020-02-19 04:00:00 GSVT2
07316500 Washita River near Cheyenne, OK 13.5 7.38 21.8 69,800 2020-02-19 04:00:00 CHYO2
07324200 Washita River near Hammon, OK   8.97 72.4 167,000 2020-02-19 04:45:00 HMMO2
07324300 Foss Reservoir near Foss, OK   1641.64

 

  2020-02-19 04:00:00 FOSO2
07324400 Washita River near Foss, OK   6.61 4.68 14,000 2020-02-19 04:45:00 FBFO2
07325000 Washita River near Clinton, OK 18 5.71 60.8 90,000 2020-02-19 04:30:00 CLIO2
07325500 Washita River at Carnegie, OK 25 4.48

 

50,000 2020-02-19 04:00:00 CAGO2
07325800 Cobb Creek near Eakly, OK   3.79 28.1 12,000 2020-02-19 04:30:00  
07325840 Lake Creek near Sickles, OK   5.52 29.7 1,630 2020-02-19 04:45:00  
07325850 Lake Creek near Eakly, OK   5.71 4.57 8,310 2020-02-19 04:00:00  
07325860 Willow Creek near Albert, OK   2.06 2.23 12,000 2020-02-19 04:30:00  
07325900 Fort Cobb Reservoir near Fort Cobb, OK   1342.23

 

  2020-02-19 04:00:00  
07326000 Cobb Creek near Fort Cobb, OK   3.30 3.37 51,000 2020-02-19 04:00:00  
07326500 Washita River at Anadarko, OK 19 7.56 398 52,800 2020-02-19 04:30:00 ANDO2
07327442 Little Washita River near Cyril, OK   10.36 3.10 3,120 2020-02-19 04:00:00  
07327447 Little Washita River near Cement, OK   3.58 29.5 3,770 2020-02-19 04:45:00  
07327550 Little Washita River East of Ninnekah, OK 20 7.08 47.6 9,920 2020-02-19 04:00:00 NKHO2
07328100 Washita River at Alex, OK 28 3.16 830 53,600 2020-02-19 04:00:00 ALXO2
07328180 North Criner Creek near Criner, OK   3.05 1.19 1,640 2020-02-19 04:15:00  
07328500 Washita River near Pauls Valley, OK 29 6.48 986 43,600 2020-02-19 04:30:00 PLVO2
07329605 Lake Humphreys near Duncan, OK   1177.88

 

  2020-02-19 04:00:00  
07329610 Lake Fuqua near Duncan, OK   1077.36

 

  2020-02-19 04:00:00  
07329700 Wildhorse Creek near Hoover, OK 25 10.20

 

40,600 2020-02-02 17:30:00 HVRO2
07329780 Honey Creek below Turner Falls near Davis, OK   1.61 35.1 8,270 2020-02-19 04:30:00  
07329849 01S-03E-01 ABB 1 Antelope Spring at Sulphur, OK   3.06 5.29 11.7 2020-02-18 20:00:00  
073298507 Travertine Creek above U.S. 177 at Sulphur   5.29 16.7 876 2020-02-08 15:00:00  
07329852 Rock Creek at Sulphur, OK   6.18 29.0 17,000 2020-02-19 04:45:00  
07331000 Washita River near Dickson, OK 27 10.62 2,820 126,000 2020-02-19 04:30:00 DURO2
07331185 Mill Creek near Sulphur, OK   5.27

 

  2020-02-19 04:00:00  
07331200 Mill Creek near Mill Creek, OK   6.84 41.5 4,010 2020-02-19 04:30:00  
07331205 Mill Cr at Mouth of 3Mile Cr near Mill Cr , OK   5.69

 

  2020-02-19 04:00:00  
07331293 Pennington Creek North of Mill Creek, OK   3.44

 

  2020-02-19 04:30:00  
07331295 Pennington Creek East of Mill Creek, OK   3.29 75.2 2,510 2020-02-19 04:30:00  
07331300 Pennington Creek near Reagan, OK   11.34 138 9,970 2020-02-19 04:30:00  
07331383 Pennington Creek at Capitol Ave at Tishomingo, OK   2.90 1,380 9,360 2020-02-19 04:00:00  
07331455 Lake Texoma at Cumberland Cut nr Cumberland, OK   618.61

 

  2020-02-19 04:30:00  
07331600 Red River at Denison Dam nr Denison, TX   11.32 15,300 71,700 2020-02-19 04:00:00 DSTT2
07332305 Blue River West of Fittstown, OK   5.61

 

  2020-02-19 04:00:00  
07332307 Blue River near Franks, OK   6.15

 

  2020-02-19 04:30:00  
07332348 Blue River North of Connerville, OK   2.90

 

  2020-02-19 04:30:00  
07332390 Blue River near Connerville, OK   6.41 333 23,000 2020-02-19 04:45:00  
07332500 Blue River near Blue, OK 28 9.22 573 65,200 2020-02-19 04:30:00 BLUO2
07333010 Atoka Reservoir near Stringtown, OK   588.66

 

  2020-02-19 04:30:00  
07333900 McGee Creek Reservoir near Farris, OK   577.30

 

  2020-02-19 04:15:00 MGCO2
07334000 Muddy Boggy Creek near Farris, OK 43 15.52 2,320 61,900 2020-02-19 04:30:00 FRSO2
07334238 Sheep Creek Spring near Fittstown, OK   5.38 4.59 9.92 2020-02-19 04:30:00  
07334428 Delaware Cr Blw Del Cr Site 9 RSVR nr Bromide, OK   5.29

 

  2020-02-19 04:30:00  
07334800 Clear Boggy Creek abv Caney Creek nr Caney, OK 26 13.54 757 36,200 2020-02-19 04:30:00 CANO2
07335300 Muddy Boggy Creek near Unger, OK   20.91 4,230 76,700 2020-02-19 04:00:00  
07335500 Red River at Arthur City, TX 27 11.15 13,100 400,000 2020-02-19 04:00:00 ARCT2
07335700 Kiamichi River near Big Cedar, OK   4.32 152 27,400 2020-02-19 04:30:00  
07335790 Kiamichi River near Clayton, OK 17 5.69 607 48,600 2020-02-19 04:00:00 CLTO2
07335840 Pine Creek at Eubanks, OK   6.51

 

  2020-02-19 04:15:00  
07336200 Kiamichi River near Antlers, OK 25 7.31 2,220 62,300 2020-02-19 04:30:00 ANTO2
07336820 Red River near De Kalb, TX 24 17.42 28,200 299,000 2020-02-19 04:00:00 DEKT2
07337900 Glover River near Glover, OK 16 4.79 502 98,600 2020-02-19 04:30:00 GLOO2
07338500 Little River blw Lukfata Creek, nr Idabel, OK 30 15.67 4,650 103,000 2020-02-19 04:30:00 IDBO2
07338750 Mountain Fork at Smithville, OK   9.51 1,600 65,200 2020-02-19 04:30:00  
07339000 Mountain Fork near Eagletown, OK 11 7.56 7,380 101,000 2020-02-19 04:30:00 EAGO2